MSC Vienna — A8CI9 — position and weather

sailwx.info

Track history (hours):
 
Tides and Currents Weather Stations Pressure Air Temp Water Temp Dewpoint Dewpoint Depression Visibility Wind Speed Wind Dir Waves Ship Positions

MSC Vienna

Last reported at 2017-Mar-23 18:33 UTC. Time now 2017-Mar-24 20:06 UTC.
Position N 19°28' W 096°03'.

Length 260.1 m; beam 32.2 m; draft 12 m.

Type: Ship. MMSI: 636090654.

Date/timePositionNaut miles runAvg speedWind from/ knotsBaromVisibWave heightAir tempDewpointWater temp
2017-Mar-23 18:33N 19°28' W 096°03'1614.7
2017-Mar-23 17:27N 19°12' W 096°05'3 3.3
2017-Mar-23 16:24N 19°13' W 096°08'0 0.0
2017-Mar-23 15:33N 19°13' W 096°08'0 0.0
2017-Mar-23 14:30N 19°13' W 096°08'0 0.0
2017-Mar-23 13:33N 19°13' W 096°08'0 0.0
2017-Mar-23 12:30N 19°13' W 096°08'0 0.0
2017-Mar-23 11:30N 19°13' W 096°08'0 0.0
2017-Mar-23 10:30N 19°13' W 096°08'0 0.0
2017-Mar-23 09:30N 19°13' W 096°08'0 0.0
2017-Mar-23 08:18N 19°13' W 096°08'0 0.0
2017-Mar-23 07:33N 19°13' W 096°08'0 0.0
2017-Mar-23 06:33N 19°13' W 096°08'0 0.0
2017-Mar-23 05:30N 19°13' W 096°08'0 0.0
2017-Mar-23 04:24N 19°13' W 096°08'0 0.0
2017-Mar-23 03:30N 19°13' W 096°08'0 0.0
2017-Mar-23 02:24N 19°13' W 096°08'0 0.0
2017-Mar-23 01:30N 19°13' W 096°08'0 0.0
2017-Mar-23 00:33N 19°13' W 096°08'0 0.0
2017-Mar-22 23:33N 19°13' W 096°08'2 2.3
2017-Mar-22 22:33N 19°12' W 096°06'4 4.1
2017-Mar-22 21:33N 19°11' W 096°02'1 1.1
2017-Mar-22 20:31N 19°09' W 096°02'0 0.0
2017-Mar-22 19:31N 19°09' W 096°02'0 0.0
2017-Mar-22 18:31N 19°09' W 096°02'0 0.0
2017-Mar-22 17:31N 19°09' W 096°02'0 0.0
2017-Mar-22 16:19N 19°09' W 096°02'0 0.0
2017-Mar-22 15:25N 19°09' W 096°02'0 0.0
2017-Mar-22 14:31N 19°09' W 096°02'0 0.0
2017-Mar-22 13:25N 19°09' W 096°02'0 0.0
2017-Mar-22 12:25N 19°09' W 096°02'0 0.0
2017-Mar-22 11:31N 19°09' W 096°02'0 0.0
2017-Mar-22 10:31N 19°09' W 096°02'0 0.0
2017-Mar-22 09:31N 19°09' W 096°02'0 0.0
2017-Mar-22 08:31N 19°09' W 096°02'0 0.0
2017-Mar-22 07:31N 19°09' W 096°02'0 0.0
2017-Mar-22 06:31N 19°09' W 096°02'0 0.0
2017-Mar-22 05:31N 19°09' W 096°02'0 0.0
2017-Mar-22 04:31N 19°09' W 096°02'0 0.0
2017-Mar-22 03:31N 19°09' W 096°02'0 0.0
2017-Mar-22 02:31N 19°09' W 096°02'0 0.0
2017-Mar-22 01:25N 19°09' W 096°02'0 0.0
2017-Mar-22 00:31N 19°09' W 096°02'0 0.0
2017-Mar-21 23:31N 19°09' W 096°02'0 0.0
2017-Mar-21 22:31N 19°09' W 096°02'0 0.0
2017-Mar-21 21:31N 19°09' W 096°02'0 0.0
2017-Mar-21 20:19N 19°09' W 096°02'0 0.0
2017-Mar-21 19:31N 19°09' W 096°02'0 0.0
2017-Mar-21 18:19N 19°09' W 096°02'0 0.0
2017-Mar-21 17:19N 19°09' W 096°02'0 0.0
2017-Mar-21 16:33N 19°09' W 096°02'0 0.0
2017-Mar-21 15:33N 19°09' W 096°02'0 0.1
2017-Mar-21 14:33N 19°09' W 096°02'9 8.9
2017-Mar-21 13:33N 19°15' W 095°54'  
2017-Mar-15 05:30N 25°38' W 079°40'1414.5
2017-Mar-15 04:33N 25°50' W 079°46'1514.8
2017-Mar-15 03:33N 26°01' W 079°58'9 9.3
2017-Mar-15 02:33N 26°05' W 080°07'1 1.0
2017-Mar-15 01:30N 26°04' W 080°07'0 0.0
2017-Mar-15 00:30N 26°04' W 080°07'0 0.0
2017-Mar-14 23:18N 26°04' W 080°07'0 0.0
2017-Mar-14 22:33N 26°04' W 080°07'0 0.0
2017-Mar-14 21:33N 26°04' W 080°07'0 0.0
2017-Mar-14 20:33N 26°04' W 080°07'0 0.0
2017-Mar-14 19:33N 26°04' W 080°07'0 0.0
2017-Mar-14 18:33N 26°04' W 080°07'0 0.2
2017-Mar-14 17:33N 26°04' W 080°07'5 5.4
2017-Mar-14 16:33N 26°06' W 080°01'1515.0
2017-Mar-14 15:33N 26°09' W 079°45'  
Track history (hours):
 
Tides and Currents Weather Stations Pressure Air Temp Water Temp Dewpoint Dewpoint Depression Visibility Wind Speed Wind Dir Waves Ship Positions

MSC Vienna

Last reported at 2017-Mar-23 18:33 UTC. Time now 2017-Mar-24 20:06 UTC.
Position N 19°28' W 096°03'.

Length 260.1 m; beam 32.2 m; draft 12 m.

Type: Ship. MMSI: 636090654.

Date/timePositionNaut miles runAvg speedWind from/ knotsBaromVisibWave heightAir tempDewpointWater temp
2017-Mar-23 18:33N 19°28' W 096°03'1614.7
2017-Mar-23 17:27N 19°12' W 096°05'3 3.3
2017-Mar-23 16:24N 19°13' W 096°08'0 0.0
2017-Mar-23 15:33N 19°13' W 096°08'0 0.0
2017-Mar-23 14:30N 19°13' W 096°08'0 0.0
2017-Mar-23 13:33N 19°13' W 096°08'0 0.0
2017-Mar-23 12:30N 19°13' W 096°08'0 0.0
2017-Mar-23 11:30N 19°13' W 096°08'0 0.0
2017-Mar-23 10:30N 19°13' W 096°08'0 0.0
2017-Mar-23 09:30N 19°13' W 096°08'0 0.0
2017-Mar-23 08:18N 19°13' W 096°08'0 0.0
2017-Mar-23 07:33N 19°13' W 096°08'0 0.0
2017-Mar-23 06:33N 19°13' W 096°08'0 0.0
2017-Mar-23 05:30N 19°13' W 096°08'0 0.0
2017-Mar-23 04:24N 19°13' W 096°08'0 0.0
2017-Mar-23 03:30N 19°13' W 096°08'0 0.0
2017-Mar-23 02:24N 19°13' W 096°08'0 0.0
2017-Mar-23 01:30N 19°13' W 096°08'0 0.0
2017-Mar-23 00:33N 19°13' W 096°08'0 0.0
2017-Mar-22 23:33N 19°13' W 096°08'2 2.3
2017-Mar-22 22:33N 19°12' W 096°06'4 4.1
2017-Mar-22 21:33N 19°11' W 096°02'1 1.1
2017-Mar-22 20:31N 19°09' W 096°02'0 0.0
2017-Mar-22 19:31N 19°09' W 096°02'0 0.0
2017-Mar-22 18:31N 19°09' W 096°02'0 0.0
2017-Mar-22 17:31N 19°09' W 096°02'0 0.0
2017-Mar-22 16:19N 19°09' W 096°02'0 0.0
2017-Mar-22 15:25N 19°09' W 096°02'0 0.0
2017-Mar-22 14:31N 19°09' W 096°02'0 0.0
2017-Mar-22 13:25N 19°09' W 096°02'0 0.0
2017-Mar-22 12:25N 19°09' W 096°02'0 0.0
2017-Mar-22 11:31N 19°09' W 096°02'0 0.0
2017-Mar-22 10:31N 19°09' W 096°02'0 0.0
2017-Mar-22 09:31N 19°09' W 096°02'0 0.0
2017-Mar-22 08:31N 19°09' W 096°02'0 0.0
2017-Mar-22 07:31N 19°09' W 096°02'0 0.0
2017-Mar-22 06:31N 19°09' W 096°02'0 0.0
2017-Mar-22 05:31N 19°09' W 096°02'0 0.0
2017-Mar-22 04:31N 19°09' W 096°02'0 0.0
2017-Mar-22 03:31N 19°09' W 096°02'0 0.0
2017-Mar-22 02:31N 19°09' W 096°02'0 0.0
2017-Mar-22 01:25N 19°09' W 096°02'0 0.0
2017-Mar-22 00:31N 19°09' W 096°02'0 0.0
2017-Mar-21 23:31N 19°09' W 096°02'0 0.0
2017-Mar-21 22:31N 19°09' W 096°02'0 0.0
2017-Mar-21 21:31N 19°09' W 096°02'0 0.0
2017-Mar-21 20:19N 19°09' W 096°02'0 0.0
2017-Mar-21 19:31N 19°09' W 096°02'0 0.0
2017-Mar-21 18:19N 19°09' W 096°02'0 0.0
2017-Mar-21 17:19N 19°09' W 096°02'0 0.0
2017-Mar-21 16:33N 19°09' W 096°02'0 0.0
2017-Mar-21 15:33N 19°09' W 096°02'0 0.1
2017-Mar-21 14:33N 19°09' W 096°02'9 8.9
2017-Mar-21 13:33N 19°15' W 095°54'  
2017-Mar-15 05:30N 25°38' W 079°40'1414.5
2017-Mar-15 04:33N 25°50' W 079°46'1514.8
2017-Mar-15 03:33N 26°01' W 079°58'9 9.3
2017-Mar-15 02:33N 26°05' W 080°07'1 1.0
2017-Mar-15 01:30N 26°04' W 080°07'0 0.0
2017-Mar-15 00:30N 26°04' W 080°07'0 0.0
2017-Mar-14 23:18N 26°04' W 080°07'0 0.0
2017-Mar-14 22:33N 26°04' W 080°07'0 0.0
2017-Mar-14 21:33N 26°04' W 080°07'0 0.0
2017-Mar-14 20:33N 26°04' W 080°07'0 0.0
2017-Mar-14 19:33N 26°04' W 080°07'0 0.0
2017-Mar-14 18:33N 26°04' W 080°07'0 0.2
2017-Mar-14 17:33N 26°04' W 080°07'5 5.4
2017-Mar-14 16:33N 26°06' W 080°01'1515.0
2017-Mar-14 15:33N 26°09' W 079°45'  

Dump ship's entire track history